Holyhead, United Kingdom
Current Conditions -  °F | °C
As of 8:50 PM on Friday 19 Dec 2014 (Local Time) from EGOV Reporting Station
Broken Clouds Broken Clouds  
Wind Chill: 39°   Ceiling: 5000
Heat Index: 46°   Visibility: 6mi
Dew Point: 36°   Wind: 20mph
Humidity: 66%   Direction: 260°W
Pressure: 30.15"   Gusts: NA
Location:  53.31°N, 4.63°W
Report Text: EGOV 192050Z AUTO 26017KT 9999 SCT027/// BKN050/// 08/02 Q1021
Loading
Personal Weather Stations






























Interactive Weather Map New forecast layout! Learn more

10-Day Weather Forecast

Advertisements
Track Severe Weather on mobile